sensor_id;sensor_type;location;lat;lon;timestamp;P1;durP1;ratioP1;P2;durP2;ratioP2
14526;SDS011;7350;51.208;4.238;2023-05-07T00:00:47;4.15;;;2.25;;
14526;SDS011;7350;51.208;4.238;2023-05-07T00:03:16;3.00;;;2.47;;
14526;SDS011;7350;51.208;4.238;2023-05-07T00:05:44;3.88;;;2.38;;
14526;SDS011;7350;51.208;4.238;2023-05-07T00:08:11;2.60;;;2.30;;
14526;SDS011;7350;51.208;4.238;2023-05-07T00:10:38;3.58;;;2.47;;
14526;SDS011;7350;51.208;4.238;2023-05-07T00:13:05;3.72;;;2.47;;
14526;SDS011;7350;51.208;4.238;2023-05-07T00:15:32;2.58;;;2.20;;
14526;SDS011;7350;51.208;4.238;2023-05-07T00:17:59;2.50;;;2.20;;
14526;SDS011;7350;51.208;4.238;2023-05-07T00:20:27;2.58;;;2.05;;
14526;SDS011;7350;51.208;4.238;2023-05-07T00:22:55;2.83;;;2.30;;
14526;SDS011;7350;51.208;4.238;2023-05-07T00:25:21;2.47;;;2.17;;
14526;SDS011;7350;51.208;4.238;2023-05-07T00:27:48;3.08;;;2.17;;
14526;SDS011;7350;51.208;4.238;2023-05-07T00:30:15;3.38;;;2.40;;
14526;SDS011;7350;51.208;4.238;2023-05-07T00:32:43;3.60;;;2.40;;
14526;SDS011;7350;51.208;4.238;2023-05-07T00:35:10;2.85;;;2.35;;
14526;SDS011;7350;51.208;4.238;2023-05-07T00:37:39;2.75;;;2.20;;
14526;SDS011;7350;51.208;4.238;2023-05-07T00:40:06;3.72;;;2.22;;
14526;SDS011;7350;51.208;4.238;2023-05-07T00:42:34;2.80;;;2.45;;
14526;SDS011;7350;51.208;4.238;2023-05-07T00:45:01;4.13;;;2.67;;
14526;SDS011;7350;51.208;4.238;2023-05-07T00:47:29;3.35;;;2.28;;
14526;SDS011;7350;51.208;4.238;2023-05-07T00:49:56;2.80;;;2.25;;
14526;SDS011;7350;51.208;4.238;2023-05-07T00:52:24;3.00;;;2.22;;
14526;SDS011;7350;51.208;4.238;2023-05-07T00:54:53;3.67;;;2.40;;
14526;SDS011;7350;51.208;4.238;2023-05-07T00:57:21;4.00;;;2.00;;
14526;SDS011;7350;51.208;4.238;2023-05-07T00:59:50;3.10;;;1.92;;
14526;SDS011;7350;51.208;4.238;2023-05-07T01:02:18;3.45;;;2.17;;
14526;SDS011;7350;51.208;4.238;2023-05-07T01:04:45;2.97;;;2.28;;
14526;SDS011;7350;51.208;4.238;2023-05-07T01:07:12;2.88;;;2.35;;
14526;SDS011;7350;51.208;4.238;2023-05-07T01:09:39;2.80;;;2.15;;
14526;SDS011;7350;51.208;4.238;2023-05-07T01:12:08;4.40;;;2.15;;
14526;SDS011;7350;51.208;4.238;2023-05-07T01:14:35;2.20;;;2.00;;
14526;SDS011;7350;51.208;4.238;2023-05-07T01:17:02;2.75;;;2.47;;
14526;SDS011;7350;51.208;4.238;2023-05-07T01:19:29;2.83;;;2.00;;
14526;SDS011;7350;51.208;4.238;2023-05-07T01:21:59;3.10;;;2.30;;
14526;SDS011;7350;51.208;4.238;2023-05-07T01:24:31;2.40;;;2.17;;
14526;SDS011;7350;51.208;4.238;2023-05-07T01:26:58;2.92;;;1.90;;
14526;SDS011;7350;51.208;4.238;2023-05-07T01:29:26;3.05;;;2.35;;
14526;SDS011;7350;51.208;4.238;2023-05-07T01:31:53;3.15;;;2.20;;
14526;SDS011;7350;51.208;4.238;2023-05-07T01:34:23;2.92;;;2.58;;
14526;SDS011;7350;51.208;4.238;2023-05-07T01:36:52;2.67;;;2.10;;
14526;SDS011;7350;51.208;4.238;2023-05-07T01:39:20;3.08;;;2.33;;
14526;SDS011;7350;51.208;4.238;2023-05-07T01:41:50;2.90;;;2.20;;
14526;SDS011;7350;51.208;4.238;2023-05-07T01:44:18;3.60;;;2.25;;
14526;SDS011;7350;51.208;4.238;2023-05-07T01:46:45;2.80;;;2.10;;
14526;SDS011;7350;51.208;4.238;2023-05-07T01:49:14;2.85;;;2.33;;
14526;SDS011;7350;51.208;4.238;2023-05-07T01:51:41;3.17;;;2.10;;
14526;SDS011;7350;51.208;4.238;2023-05-07T01:54:09;2.53;;;2.33;;
14526;SDS011;7350;51.208;4.238;2023-05-07T01:56:36;4.25;;;2.50;;
14526;SDS011;7350;51.208;4.238;2023-05-07T01:59:04;2.90;;;2.20;;
14526;SDS011;7350;51.208;4.238;2023-05-07T02:01:31;2.95;;;2.30;;
14526;SDS011;7350;51.208;4.238;2023-05-07T02:03:58;2.70;;;2.40;;
14526;SDS011;7350;51.208;4.238;2023-05-07T02:06:25;2.47;;;1.92;;
14526;SDS011;7350;51.208;4.238;2023-05-07T02:08:52;3.58;;;2.13;;
14526;SDS011;7350;51.208;4.238;2023-05-07T02:11:19;2.30;;;2.10;;
14526;SDS011;7350;51.208;4.238;2023-05-07T02:13:46;3.45;;;2.25;;
14526;SDS011;7350;51.208;4.238;2023-05-07T02:16:14;3.42;;;2.28;;
14526;SDS011;7350;51.208;4.238;2023-05-07T02:18:41;2.92;;;2.20;;
14526;SDS011;7350;51.208;4.238;2023-05-07T02:21:08;2.97;;;2.40;;
14526;SDS011;7350;51.208;4.238;2023-05-07T02:23:35;2.72;;;2.10;;
14526;SDS011;7350;51.208;4.238;2023-05-07T02:26:03;3.30;;;2.25;;
14526;SDS011;7350;51.208;4.238;2023-05-07T02:28:30;2.22;;;2.03;;
14526;SDS011;7350;51.208;4.238;2023-05-07T02:30:57;3.22;;;2.30;;
14526;SDS011;7350;51.208;4.238;2023-05-07T02:33:26;3.00;;;2.08;;
14526;SDS011;7350;51.208;4.238;2023-05-07T02:35:53;2.45;;;2.25;;
14526;SDS011;7350;51.208;4.238;2023-05-07T02:38:20;2.85;;;2.13;;
14526;SDS011;7350;51.208;4.238;2023-05-07T02:40:48;2.53;;;2.20;;
14526;SDS011;7350;51.208;4.238;2023-05-07T02:43:15;3.00;;;2.40;;
14526;SDS011;7350;51.208;4.238;2023-05-07T02:45:42;3.42;;;2.47;;
14526;SDS011;7350;51.208;4.238;2023-05-07T02:48:09;2.20;;;1.92;;
14526;SDS011;7350;51.208;4.238;2023-05-07T02:50:37;2.28;;;2.08;;
14526;SDS011;7350;51.208;4.238;2023-05-07T02:53:04;3.38;;;2.47;;
14526;SDS011;7350;51.208;4.238;2023-05-07T02:55:31;2.72;;;2.10;;
14526;SDS011;7350;51.208;4.238;2023-05-07T02:57:58;2.55;;;2.30;;
14526;SDS011;7350;51.208;4.238;2023-05-07T03:00:25;2.15;;;1.95;;
14526;SDS011;7350;51.208;4.238;2023-05-07T03:02:52;2.85;;;2.25;;
14526;SDS011;7350;51.208;4.238;2023-05-07T03:05:19;2.53;;;2.08;;
14526;SDS011;7350;51.208;4.238;2023-05-07T03:07:47;2.28;;;2.08;;
14526;SDS011;7350;51.208;4.238;2023-05-07T03:10:15;3.15;;;2.38;;
14526;SDS011;7350;51.208;4.238;2023-05-07T03:12:42;2.50;;;2.25;;
14526;SDS011;7350;51.208;4.238;2023-05-07T03:15:09;3.65;;;2.65;;
14526;SDS011;7350;51.208;4.238;2023-05-07T03:17:37;2.92;;;2.22;;
14526;SDS011;7350;51.208;4.238;2023-05-07T03:20:05;2.25;;;2.05;;
14526;SDS011;7350;51.208;4.238;2023-05-07T03:22:33;2.67;;;2.25;;
14526;SDS011;7350;51.208;4.238;2023-05-07T03:25:01;3.13;;;2.40;;
14526;SDS011;7350;51.208;4.238;2023-05-07T03:27:29;2.45;;;2.25;;
14526;SDS011;7350;51.208;4.238;2023-05-07T03:29:56;2.42;;;2.22;;
14526;SDS011;7350;51.208;4.238;2023-05-07T03:32:23;2.20;;;2.00;;
14526;SDS011;7350;51.208;4.238;2023-05-07T03:34:50;2.63;;;2.33;;
14526;SDS011;7350;51.208;4.238;2023-05-07T03:37:17;2.17;;;1.98;;
14526;SDS011;7350;51.208;4.238;2023-05-07T03:39:44;2.75;;;2.20;;
14526;SDS011;7350;51.208;4.238;2023-05-07T03:42:12;2.67;;;2.20;;
14526;SDS011;7350;51.208;4.238;2023-05-07T03:44:39;2.65;;;2.40;;
14526;SDS011;7350;51.208;4.238;2023-05-07T03:47:06;4.15;;;2.28;;
14526;SDS011;7350;51.208;4.238;2023-05-07T03:49:35;2.63;;;2.13;;
14526;SDS011;7350;51.208;4.238;2023-05-07T03:52:03;2.63;;;2.42;;
14526;SDS011;7350;51.208;4.238;2023-05-07T03:54:30;2.47;;;2.20;;
14526;SDS011;7350;51.208;4.238;2023-05-07T03:56:57;2.30;;;2.10;;
14526;SDS011;7350;51.208;4.238;2023-05-07T03:59:26;2.42;;;2.20;;
14526;SDS011;7350;51.208;4.238;2023-05-07T04:01:53;2.40;;;2.20;;
14526;SDS011;7350;51.208;4.238;2023-05-07T04:04:20;2.55;;;2.35;;
14526;SDS011;7350;51.208;4.238;2023-05-07T04:06:47;2.53;;;2.20;;
14526;SDS011;7350;51.208;4.238;2023-05-07T04:09:13;2.63;;;2.13;;
14526;SDS011;7350;51.208;4.238;2023-05-07T04:11:40;3.13;;;2.13;;
14526;SDS011;7350;51.208;4.238;2023-05-07T04:14:07;2.88;;;2.53;;
14526;SDS011;7350;51.208;4.238;2023-05-07T04:16:36;2.80;;;2.40;;
14526;SDS011;7350;51.208;4.238;2023-05-07T04:19:03;2.45;;;2.20;;
14526;SDS011;7350;51.208;4.238;2023-05-07T04:21:30;2.72;;;2.25;;
14526;SDS011;7350;51.208;4.238;2023-05-07T04:23:57;2.72;;;2.28;;
14526;SDS011;7350;51.208;4.238;2023-05-07T04:26:24;3.00;;;2.33;;
14526;SDS011;7350;51.208;4.238;2023-05-07T04:28:51;2.05;;;1.85;;
14526;SDS011;7350;51.208;4.238;2023-05-07T04:31:18;3.25;;;2.45;;
14526;SDS011;7350;51.208;4.238;2023-05-07T04:33:46;2.58;;;2.15;;
14526;SDS011;7350;51.208;4.238;2023-05-07T04:36:13;2.30;;;2.10;;
14526;SDS011;7350;51.208;4.238;2023-05-07T04:38:41;2.55;;;2.13;;
14526;SDS011;7350;51.208;4.238;2023-05-07T04:41:08;4.20;;;2.40;;
14526;SDS011;7350;51.208;4.238;2023-05-07T04:43:36;2.38;;;2.17;;
14526;SDS011;7350;51.208;4.238;2023-05-07T04:46:03;2.63;;;2.42;;
14526;SDS011;7350;51.208;4.238;2023-05-07T04:48:30;2.30;;;2.10;;
14526;SDS011;7350;51.208;4.238;2023-05-07T04:50:58;3.25;;;2.15;;
14526;SDS011;7350;51.208;4.238;2023-05-07T04:53:25;2.30;;;2.10;;
14526;SDS011;7350;51.208;4.238;2023-05-07T04:55:54;2.38;;;2.17;;
14526;SDS011;7350;51.208;4.238;2023-05-07T04:58:22;2.38;;;2.17;;
14526;SDS011;7350;51.208;4.238;2023-05-07T05:00:49;3.85;;;2.17;;
14526;SDS011;7350;51.208;4.238;2023-05-07T05:03:16;3.85;;;2.67;;
14526;SDS011;7350;51.208;4.238;2023-05-07T05:05:44;3.67;;;2.67;;
14526;SDS011;7350;51.208;4.238;2023-05-07T05:08:12;3.72;;;3.28;;
14526;SDS011;7350;51.208;4.238;2023-05-07T05:10:39;4.32;;;3.20;;
14526;SDS011;7350;51.208;4.238;2023-05-07T05:13:08;7.53;;;4.57;;
14526;SDS011;7350;51.208;4.238;2023-05-07T05:15:37;4.80;;;4.20;;
14526;SDS011;7350;51.208;4.238;2023-05-07T05:18:04;6.32;;;4.00;;
14526;SDS011;7350;51.208;4.238;2023-05-07T05:20:31;5.93;;;4.10;;
14526;SDS011;7350;51.208;4.238;2023-05-07T05:22:58;7.05;;;4.65;;
14526;SDS011;7350;51.208;4.238;2023-05-07T05:25:26;5.60;;;4.03;;
14526;SDS011;7350;51.208;4.238;2023-05-07T05:27:53;4.88;;;3.95;;
14526;SDS011;7350;51.208;4.238;2023-05-07T05:30:20;4.63;;;4.10;;
14526;SDS011;7350;51.208;4.238;2023-05-07T05:32:47;6.65;;;4.93;;
14526;SDS011;7350;51.208;4.238;2023-05-07T05:35:14;6.00;;;4.28;;
14526;SDS011;7350;51.208;4.238;2023-05-07T05:37:41;4.85;;;4.35;;
14526;SDS011;7350;51.208;4.238;2023-05-07T05:40:08;5.20;;;4.40;;
14526;SDS011;7350;51.208;4.238;2023-05-07T05:42:37;5.13;;;4.40;;
14526;SDS011;7350;51.208;4.238;2023-05-07T05:45:05;5.50;;;4.32;;
14526;SDS011;7350;51.208;4.238;2023-05-07T05:47:32;5.40;;;4.28;;
14526;SDS011;7350;51.208;4.238;2023-05-07T05:49:59;4.57;;;4.07;;
14526;SDS011;7350;51.208;4.238;2023-05-07T05:52:26;6.30;;;4.38;;
14526;SDS011;7350;51.208;4.238;2023-05-07T05:54:53;4.18;;;3.78;;
14526;SDS011;7350;51.208;4.238;2023-05-07T05:57:20;5.65;;;4.28;;
14526;SDS011;7350;51.208;4.238;2023-05-07T05:59:49;4.78;;;3.83;;
14526;SDS011;7350;51.208;4.238;2023-05-07T06:02:16;4.65;;;3.63;;
14526;SDS011;7350;51.208;4.238;2023-05-07T06:04:43;6.32;;;4.15;;
14526;SDS011;7350;51.208;4.238;2023-05-07T06:07:10;4.35;;;3.45;;
14526;SDS011;7350;51.208;4.238;2023-05-07T06:09:37;4.53;;;3.55;;
14526;SDS011;7350;51.208;4.238;2023-05-07T06:12:04;4.65;;;3.30;;
14526;SDS011;7350;51.208;4.238;2023-05-07T06:14:31;5.28;;;3.38;;
14526;SDS011;7350;51.208;4.238;2023-05-07T06:16:59;4.43;;;3.30;;
14526;SDS011;7350;51.208;4.238;2023-05-07T06:19:26;3.58;;;2.72;;
14526;SDS011;7350;51.208;4.238;2023-05-07T06:21:53;4.68;;;3.42;;
14526;SDS011;7350;51.208;4.238;2023-05-07T06:24:21;5.60;;;3.10;;
14526;SDS011;7350;51.208;4.238;2023-05-07T06:26:48;4.60;;;3.33;;
14526;SDS011;7350;51.208;4.238;2023-05-07T06:29:15;4.85;;;3.08;;
14526;SDS011;7350;51.208;4.238;2023-05-07T06:31:42;4.35;;;3.17;;
14526;SDS011;7350;51.208;4.238;2023-05-07T06:34:11;3.28;;;2.97;;
14526;SDS011;7350;51.208;4.238;2023-05-07T06:36:39;3.25;;;2.92;;
14526;SDS011;7350;51.208;4.238;2023-05-07T06:39:06;3.78;;;3.22;;
14526;SDS011;7350;51.208;4.238;2023-05-07T06:41:33;4.40;;;2.92;;
14526;SDS011;7350;51.208;4.238;2023-05-07T06:44:00;3.33;;;2.80;;
14526;SDS011;7350;51.208;4.238;2023-05-07T06:46:27;2.95;;;2.65;;
14526;SDS011;7350;51.208;4.238;2023-05-07T06:48:54;3.78;;;2.72;;
14526;SDS011;7350;51.208;4.238;2023-05-07T06:51:23;3.22;;;2.90;;
14526;SDS011;7350;51.208;4.238;2023-05-07T06:53:50;3.58;;;3.00;;
14526;SDS011;7350;51.208;4.238;2023-05-07T06:56:17;3.05;;;2.75;;
14526;SDS011;7350;51.208;4.238;2023-05-07T06:58:44;4.30;;;3.15;;
14526;SDS011;7350;51.208;4.238;2023-05-07T07:01:11;4.18;;;3.30;;
14526;SDS011;7350;51.208;4.238;2023-05-07T07:03:38;3.33;;;3.03;;
14526;SDS011;7350;51.208;4.238;2023-05-07T07:06:05;3.15;;;2.58;;
14526;SDS011;7350;51.208;4.238;2023-05-07T07:08:34;3.28;;;2.97;;
14526;SDS011;7350;51.208;4.238;2023-05-07T07:11:01;4.07;;;3.05;;
14526;SDS011;7350;51.208;4.238;2023-05-07T07:13:28;4.60;;;2.70;;
14526;SDS011;7350;51.208;4.238;2023-05-07T07:15:54;3.88;;;3.00;;
14526;SDS011;7350;51.208;4.238;2023-05-07T07:18:21;3.03;;;2.70;;
14526;SDS011;7350;51.208;4.238;2023-05-07T07:20:48;3.92;;;2.90;;
14526;SDS011;7350;51.208;4.238;2023-05-07T07:23:15;4.47;;;3.30;;
14526;SDS011;7350;51.208;4.238;2023-05-07T07:25:44;4.95;;;2.65;;
14526;SDS011;7350;51.208;4.238;2023-05-07T07:28:11;3.20;;;2.88;;
14526;SDS011;7350;51.208;4.238;2023-05-07T07:30:38;3.10;;;2.80;;
14526;SDS011;7350;51.208;4.238;2023-05-07T07:33:06;5.38;;;2.90;;
14526;SDS011;7350;51.208;4.238;2023-05-07T07:35:32;4.20;;;2.80;;
14526;SDS011;7350;51.208;4.238;2023-05-07T07:37:59;3.60;;;2.65;;
14526;SDS011;7350;51.208;4.238;2023-05-07T07:40:27;4.60;;;2.58;;
14526;SDS011;7350;51.208;4.238;2023-05-07T07:42:56;3.70;;;2.65;;
14526;SDS011;7350;51.208;4.238;2023-05-07T07:45:23;6.60;;;2.65;;
14526;SDS011;7350;51.208;4.238;2023-05-07T07:47:50;4.13;;;2.45;;
14526;SDS011;7350;51.208;4.238;2023-05-07T07:50:17;5.05;;;2.55;;
14526;SDS011;7350;51.208;4.238;2023-05-07T07:52:44;5.18;;;2.70;;
14526;SDS011;7350;51.208;4.238;2023-05-07T07:55:11;6.10;;;2.50;;
14526;SDS011;7350;51.208;4.238;2023-05-07T07:57:38;2.92;;;2.33;;
14526;SDS011;7350;51.208;4.238;2023-05-07T08:00:07;5.43;;;2.63;;
14526;SDS011;7350;51.208;4.238;2023-05-07T08:02:35;5.00;;;2.50;;
14526;SDS011;7350;51.208;4.238;2023-05-07T08:05:02;4.65;;;2.50;;
14526;SDS011;7350;51.208;4.238;2023-05-07T08:07:29;4.72;;;2.50;;
14526;SDS011;7350;51.208;4.238;2023-05-07T08:09:56;5.65;;;2.70;;
14526;SDS011;7350;51.208;4.238;2023-05-07T08:12:23;5.13;;;2.55;;
14526;SDS011;7350;51.208;4.238;2023-05-07T08:14:50;4.68;;;2.22;;
14526;SDS011;7350;51.208;4.238;2023-05-07T08:17:18;9.05;;;2.42;;
14526;SDS011;7350;51.208;4.238;2023-05-07T08:19:47;6.00;;;2.40;;
14526;SDS011;7350;51.208;4.238;2023-05-07T08:22:14;3.53;;;2.13;;
14526;SDS011;7350;51.208;4.238;2023-05-07T08:24:42;4.38;;;2.72;;
14526;SDS011;7350;51.208;4.238;2023-05-07T08:27:09;3.25;;;2.30;;
14526;SDS011;7350;51.208;4.238;2023-05-07T08:29:36;5.97;;;2.45;;
14526;SDS011;7350;51.208;4.238;2023-05-07T08:32:03;6.68;;;3.00;;
14526;SDS011;7350;51.208;4.238;2023-05-07T08:34:32;5.45;;;2.20;;
14526;SDS011;7350;51.208;4.238;2023-05-07T08:36:59;5.50;;;2.63;;
14526;SDS011;7350;51.208;4.238;2023-05-07T08:39:28;8.55;;;2.30;;
14526;SDS011;7350;51.208;4.238;2023-05-07T08:41:55;4.55;;;2.30;;
14526;SDS011;7350;51.208;4.238;2023-05-07T08:44:23;5.97;;;2.33;;
14526;SDS011;7350;51.208;4.238;2023-05-07T08:46:53;3.55;;;2.30;;
14526;SDS011;7350;51.208;4.238;2023-05-07T08:49:22;4.43;;;2.20;;
14526;SDS011;7350;51.208;4.238;2023-05-07T08:51:51;6.70;;;2.63;;
14526;SDS011;7350;51.208;4.238;2023-05-07T08:54:18;3.25;;;2.42;;
14526;SDS011;7350;51.208;4.238;2023-05-07T08:56:46;6.43;;;2.40;;
14526;SDS011;7350;51.208;4.238;2023-05-07T08:59:13;3.70;;;2.33;;
14526;SDS011;7350;51.208;4.238;2023-05-07T09:01:40;4.15;;;2.25;;
14526;SDS011;7350;51.208;4.238;2023-05-07T09:04:07;3.15;;;2.20;;
14526;SDS011;7350;51.208;4.238;2023-05-07T09:06:34;3.22;;;2.20;;
14526;SDS011;7350;51.208;4.238;2023-05-07T09:09:04;4.13;;;1.80;;
14526;SDS011;7350;51.208;4.238;2023-05-07T09:11:31;3.85;;;2.20;;
14526;SDS011;7350;51.208;4.238;2023-05-07T09:13:58;6.07;;;2.28;;
14526;SDS011;7350;51.208;4.238;2023-05-07T09:16:26;4.80;;;2.08;;
14526;SDS011;7350;51.208;4.238;2023-05-07T09:18:57;3.75;;;1.92;;
14526;SDS011;7350;51.208;4.238;2023-05-07T09:21:25;4.38;;;2.10;;
14526;SDS011;7350;51.208;4.238;2023-05-07T09:23:52;3.70;;;2.33;;
14526;SDS011;7350;51.208;4.238;2023-05-07T09:26:22;2.40;;;2.13;;
14526;SDS011;7350;51.208;4.238;2023-05-07T09:28:49;4.25;;;2.03;;
14526;SDS011;7350;51.208;4.238;2023-05-07T09:31:17;2.33;;;1.67;;
14526;SDS011;7350;51.208;4.238;2023-05-07T09:33:44;3.35;;;1.70;;
14526;SDS011;7350;51.208;4.238;2023-05-07T09:36:11;3.28;;;1.92;;
14526;SDS011;7350;51.208;4.238;2023-05-07T09:38:38;2.63;;;1.65;;
14526;SDS011;7350;51.208;4.238;2023-05-07T09:41:06;3.08;;;1.80;;
14526;SDS011;7350;51.208;4.238;2023-05-07T09:43:37;2.90;;;2.30;;
14526;SDS011;7350;51.208;4.238;2023-05-07T09:46:08;3.67;;;2.05;;
14526;SDS011;7350;51.208;4.238;2023-05-07T09:48:38;2.83;;;2.05;;
14526;SDS011;7350;51.208;4.238;2023-05-07T09:51:09;3.25;;;1.98;;
14526;SDS011;7350;51.208;4.238;2023-05-07T09:53:43;4.22;;;1.83;;
14526;SDS011;7350;51.208;4.238;2023-05-07T09:56:13;2.17;;;1.80;;
14526;SDS011;7350;51.208;4.238;2023-05-07T09:58:42;4.13;;;2.00;;
14526;SDS011;7350;51.208;4.238;2023-05-07T10:01:11;1.90;;;1.70;;
14526;SDS011;7350;51.208;4.238;2023-05-07T10:03:39;2.50;;;1.77;;
14526;SDS011;7350;51.208;4.238;2023-05-07T10:06:08;3.13;;;1.83;;
14526;SDS011;7350;51.208;4.238;2023-05-07T10:08:36;2.05;;;1.90;;
14526;SDS011;7350;51.208;4.238;2023-05-07T10:11:04;2.50;;;1.92;;
14526;SDS011;7350;51.208;4.238;2023-05-07T10:13:31;3.67;;;2.30;;
14526;SDS011;7350;51.208;4.238;2023-05-07T10:16:02;3.42;;;1.92;;
14526;SDS011;7350;51.208;4.238;2023-05-07T10:18:30;2.50;;;1.90;;
14526;SDS011;7350;51.208;4.238;2023-05-07T10:21:00;2.17;;;1.88;;
14526;SDS011;7350;51.208;4.238;2023-05-07T10:23:30;2.20;;;1.75;;
14526;SDS011;7350;51.208;4.238;2023-05-07T10:25:59;2.47;;;1.70;;
14526;SDS011;7350;51.208;4.238;2023-05-07T10:28:30;4.18;;;2.50;;
14526;SDS011;7350;51.208;4.238;2023-05-07T10:31:04;3.47;;;2.00;;
14526;SDS011;7350;51.208;4.238;2023-05-07T10:33:41;3.33;;;1.90;;
14526;SDS011;7350;51.208;4.238;2023-05-07T10:36:10;2.15;;;1.85;;
14526;SDS011;7350;51.208;4.238;2023-05-07T10:38:37;3.30;;;2.00;;
14526;SDS011;7350;51.208;4.238;2023-05-07T10:41:05;4.60;;;2.40;;
14526;SDS011;7350;51.208;4.238;2023-05-07T10:43:39;3.50;;;2.30;;
14526;SDS011;7350;51.208;4.238;2023-05-07T10:46:16;3.22;;;1.80;;
14526;SDS011;7350;51.208;4.238;2023-05-07T10:51:33;4.13;;;2.60;;
14526;SDS011;7350;51.208;4.238;2023-05-07T10:54:19;4.72;;;2.25;;
14526;SDS011;7350;51.208;4.238;2023-05-07T10:56:47;3.30;;;2.50;;
14526;SDS011;7350;51.208;4.238;2023-05-07T10:59:34;6.40;;;3.03;;
14526;SDS011;7350;51.208;4.238;2023-05-07T11:02:12;3.85;;;2.30;;
14526;SDS011;7350;51.208;4.238;2023-05-07T11:04:40;6.18;;;2.70;;
14526;SDS011;7350;51.208;4.238;2023-05-07T11:07:25;4.45;;;2.50;;
14526;SDS011;7350;51.208;4.238;2023-05-07T11:09:57;3.83;;;2.42;;
14526;SDS011;7350;51.208;4.238;2023-05-07T11:12:48;6.60;;;2.50;;
14526;SDS011;7350;51.208;4.238;2023-05-07T11:15:38;4.03;;;1.90;;
14526;SDS011;7350;51.208;4.238;2023-05-07T11:18:08;4.93;;;2.20;;
14526;SDS011;7350;51.208;4.238;2023-05-07T11:20:45;5.28;;;2.55;;
14526;SDS011;7350;51.208;4.238;2023-05-07T11:26:42;4.47;;;2.20;;
14526;SDS011;7350;51.208;4.238;2023-05-07T11:29:12;6.97;;;2.25;;
14526;SDS011;7350;51.208;4.238;2023-05-07T11:31:40;5.60;;;2.60;;
14526;SDS011;7350;51.208;4.238;2023-05-07T11:34:08;3.80;;;2.17;;
14526;SDS011;7350;51.208;4.238;2023-05-07T11:36:36;3.53;;;1.55;;
14526;SDS011;7350;51.208;4.238;2023-05-07T11:39:22;3.40;;;1.92;;
14526;SDS011;7350;51.208;4.238;2023-05-07T11:41:51;7.50;;;2.00;;
14526;SDS011;7350;51.208;4.238;2023-05-07T11:44:18;4.55;;;1.88;;
14526;SDS011;7350;51.208;4.238;2023-05-07T11:46:45;6.35;;;2.00;;
14526;SDS011;7350;51.208;4.238;2023-05-07T11:49:13;4.55;;;2.13;;
14526;SDS011;7350;51.208;4.238;2023-05-07T11:51:40;4.15;;;1.73;;
14526;SDS011;7350;51.208;4.238;2023-05-07T11:54:08;4.78;;;2.25;;
14526;SDS011;7350;51.208;4.238;2023-05-07T11:56:36;4.22;;;1.70;;
14526;SDS011;7350;51.208;4.238;2023-05-07T11:59:04;3.67;;;1.80;;
14526;SDS011;7350;51.208;4.238;2023-05-07T12:01:31;3.95;;;1.83;;
14526;SDS011;7350;51.208;4.238;2023-05-07T12:03:58;3.53;;;1.58;;
14526;SDS011;7350;51.208;4.238;2023-05-07T12:06:30;4.80;;;2.03;;
14526;SDS011;7350;51.208;4.238;2023-05-07T12:08:57;3.92;;;1.90;;
14526;SDS011;7350;51.208;4.238;2023-05-07T12:11:24;3.00;;;1.38;;
14526;SDS011;7350;51.208;4.238;2023-05-07T12:13:52;3.40;;;1.85;;
14526;SDS011;7350;51.208;4.238;2023-05-07T12:16:20;4.72;;;1.88;;
14526;SDS011;7350;51.208;4.238;2023-05-07T12:18:48;4.35;;;1.98;;
14526;SDS011;7350;51.208;4.238;2023-05-07T12:21:17;4.22;;;1.70;;
14526;SDS011;7350;51.208;4.238;2023-05-07T12:23:46;2.38;;;1.63;;
14526;SDS011;7350;51.208;4.238;2023-05-07T12:26:13;2.45;;;1.50;;
14526;SDS011;7350;51.208;4.238;2023-05-07T12:28:40;3.92;;;1.65;;
14526;SDS011;7350;51.208;4.238;2023-05-07T12:31:07;5.50;;;1.60;;
14526;SDS011;7350;51.208;4.238;2023-05-07T12:33:35;3.13;;;1.40;;
14526;SDS011;7350;51.208;4.238;2023-05-07T12:36:03;3.30;;;1.48;;
14526;SDS011;7350;51.208;4.238;2023-05-07T12:38:36;4.20;;;1.52;;
14526;SDS011;7350;51.208;4.238;2023-05-07T12:41:05;3.60;;;1.70;;
14526;SDS011;7350;51.208;4.238;2023-05-07T12:43:33;4.13;;;1.60;;
14526;SDS011;7350;51.208;4.238;2023-05-07T12:46:01;2.65;;;1.33;;
14526;SDS011;7350;51.208;4.238;2023-05-07T12:48:30;3.38;;;1.77;;
14526;SDS011;7350;51.208;4.238;2023-05-07T12:50:58;3.35;;;1.50;;
14526;SDS011;7350;51.208;4.238;2023-05-07T12:53:26;1.63;;;1.38;;
14526;SDS011;7350;51.208;4.238;2023-05-07T12:55:55;3.67;;;1.70;;
14526;SDS011;7350;51.208;4.238;2023-05-07T12:58:26;1.85;;;1.75;;
14526;SDS011;7350;51.208;4.238;2023-05-07T13:00:55;2.45;;;1.58;;
14526;SDS011;7350;51.208;4.238;2023-05-07T13:03:24;3.25;;;1.60;;
14526;SDS011;7350;51.208;4.238;2023-05-07T13:05:52;3.15;;;1.50;;
14526;SDS011;7350;51.208;4.238;2023-05-07T13:08:24;2.30;;;1.40;;
14526;SDS011;7350;51.208;4.238;2023-05-07T13:10:52;3.97;;;1.50;;
14526;SDS011;7350;51.208;4.238;2023-05-07T13:13:20;2.83;;;1.42;;
14526;SDS011;7350;51.208;4.238;2023-05-07T13:15:48;4.85;;;1.58;;
14526;SDS011;7350;51.208;4.238;2023-05-07T13:18:15;5.93;;;1.50;;
14526;SDS011;7350;51.208;4.238;2023-05-07T13:20:43;3.13;;;1.60;;
14526;SDS011;7350;51.208;4.238;2023-05-07T13:23:10;2.63;;;1.40;;
14526;SDS011;7350;51.208;4.238;2023-05-07T13:25:37;3.05;;;1.40;;
14526;SDS011;7350;51.208;4.238;2023-05-07T13:28:04;4.97;;;1.55;;
14526;SDS011;7350;51.208;4.238;2023-05-07T13:30:31;1.95;;;1.40;;
14526;SDS011;7350;51.208;4.238;2023-05-07T13:32:59;3.58;;;1.58;;
14526;SDS011;7350;51.208;4.238;2023-05-07T13:35:26;3.28;;;1.25;;
14526;SDS011;7350;51.208;4.238;2023-05-07T13:37:53;3.63;;;1.58;;
14526;SDS011;7350;51.208;4.238;2023-05-07T13:40:20;3.97;;;1.23;;
14526;SDS011;7350;51.208;4.238;2023-05-07T13:42:48;2.20;;;1.63;;
14526;SDS011;7350;51.208;4.238;2023-05-07T13:45:16;3.17;;;1.20;;
14526;SDS011;7350;51.208;4.238;2023-05-07T13:47:43;2.50;;;1.58;;
14526;SDS011;7350;51.208;4.238;2023-05-07T13:50:12;3.42;;;1.40;;
14526;SDS011;7350;51.208;4.238;2023-05-07T13:52:40;3.15;;;1.45;;
14526;SDS011;7350;51.208;4.238;2023-05-07T13:55:11;1.55;;;1.10;;
14526;SDS011;7350;51.208;4.238;2023-05-07T13:57:38;2.13;;;1.42;;
14526;SDS011;7350;51.208;4.238;2023-05-07T14:00:05;2.25;;;1.60;;
14526;SDS011;7350;51.208;4.238;2023-05-07T14:02:33;3.53;;;1.30;;
14526;SDS011;7350;51.208;4.238;2023-05-07T14:05:00;2.70;;;1.30;;
14526;SDS011;7350;51.208;4.238;2023-05-07T14:07:28;2.35;;;1.55;;
14526;SDS011;7350;51.208;4.238;2023-05-07T14:09:56;1.80;;;1.25;;
14526;SDS011;7350;51.208;4.238;2023-05-07T14:12:23;2.00;;;1.33;;
14526;SDS011;7350;51.208;4.238;2023-05-07T14:14:50;2.45;;;1.38;;
14526;SDS011;7350;51.208;4.238;2023-05-07T14:17:17;1.95;;;1.30;;
14526;SDS011;7350;51.208;4.238;2023-05-07T14:19:45;2.03;;;1.20;;
14526;SDS011;7350;51.208;4.238;2023-05-07T14:22:13;1.98;;;1.40;;
14526;SDS011;7350;51.208;4.238;2023-05-07T14:24:41;2.50;;;1.20;;
14526;SDS011;7350;51.208;4.238;2023-05-07T14:27:08;1.88;;;1.20;;
14526;SDS011;7350;51.208;4.238;2023-05-07T14:29:35;2.72;;;1.10;;
14526;SDS011;7350;51.208;4.238;2023-05-07T14:32:02;1.73;;;1.23;;
14526;SDS011;7350;51.208;4.238;2023-05-07T14:34:29;1.67;;;1.17;;
14526;SDS011;7350;51.208;4.238;2023-05-07T14:36:56;2.38;;;1.30;;
14526;SDS011;7350;51.208;4.238;2023-05-07T14:39:23;2.38;;;1.25;;
14526;SDS011;7350;51.208;4.238;2023-05-07T14:41:52;1.15;;;1.05;;
14526;SDS011;7350;51.208;4.238;2023-05-07T14:44:19;2.67;;;1.20;;
14526;SDS011;7350;51.208;4.238;2023-05-07T14:46:46;1.42;;;1.08;;
14526;SDS011;7350;51.208;4.238;2023-05-07T14:49:14;1.52;;;1.10;;
14526;SDS011;7350;51.208;4.238;2023-05-07T14:51:42;1.40;;;1.15;;
14526;SDS011;7350;51.208;4.238;2023-05-07T14:54:10;1.30;;;1.13;;
14526;SDS011;7350;51.208;4.238;2023-05-07T14:56:37;2.00;;;1.20;;
14526;SDS011;7350;51.208;4.238;2023-05-07T14:59:05;1.90;;;1.30;;
14526;SDS011;7350;51.208;4.238;2023-05-07T15:01:33;1.42;;;1.10;;
14526;SDS011;7350;51.208;4.238;2023-05-07T15:04:01;2.60;;;1.35;;
14526;SDS011;7350;51.208;4.238;2023-05-07T15:06:29;2.30;;;1.40;;
14526;SDS011;7350;51.208;4.238;2023-05-07T15:08:56;5.03;;;1.10;;
14526;SDS011;7350;51.208;4.238;2023-05-07T15:11:23;5.03;;;1.50;;